TimeEDT,TemperatureF,Dew PointF,Humidity,Sea Level PressureIn,VisibilityMPH,Wind Direction,Wind SpeedMPH,Gust SpeedMPH,PrecipitationIn,Events,Conditions,WindDirDegrees,DateUTC
12:35 AM,58.1,53.6,85,29.98,10.0,WSW,4.6,-,N/A,,Clear,240,2013-05-09 04:35:00
1:15 AM,56.8,52.2,84,29.97,10.0,Calm,Calm,-,N/A,,Clear,0,2013-05-09 05:15:00
1:35 AM,56.3,52.2,86,29.97,10.0,Calm,Calm,-,N/A,,Clear,0,2013-05-09 05:35:00
1:55 AM,55.4,51.4,87,29.96,10.0,Calm,Calm,-,N/A,,Clear,0,2013-05-09 05:55:00
2:15 AM,54.5,50.9,88,29.96,0.8,Calm,Calm,-,N/A,,Mist,0,2013-05-09 06:15:00
2:35 AM,52.9,49.6,89,29.96,2.5,SSE,3.5,-,N/A,,Clear,160,2013-05-09 06:35:00
3:35 AM,52.9,49.8,89,29.95,0.5,Calm,Calm,-,N/A,Fog,Fog,0,2013-05-09 07:35:00
3:55 AM,51.4,48.4,89,29.95,0.5,SW,3.5,-,N/A,Fog,Fog,230,2013-05-09 07:55:00
4:15 AM,50.7,47.8,90,29.96,0.5,Calm,Calm,-,N/A,Fog,Fog,0,2013-05-09 08:15:00
4:35 AM,51.4,48.6,90,29.96,1.5,Calm,Calm,-,N/A,,Scattered Clouds,0,2013-05-09 08:35:00
4:55 AM,51.8,49.1,90,29.96,5.0,Calm,Calm,-,N/A,,Clear,0,2013-05-09 08:55:00
5:35 AM,52.3,49.3,89,29.97,5.0,South,3.5,-,N/A,,Clear,190,2013-05-09 09:35:00
5:55 AM,52.5,49.6,90,29.97,4.0,Calm,Calm,-,N/A,,Clear,0,2013-05-09 09:55:00
6:15 AM,52.5,49.6,90,29.98,3.0,Calm,Calm,-,N/A,,Mostly Cloudy,0,2013-05-09 10:15:00
6:35 AM,52.9,50.0,90,29.98,3.0,SSE,3.5,-,N/A,,Overcast,160,2013-05-09 10:35:00
6:55 AM,53.6,50.7,90,29.99,3.0,Calm,Calm,-,N/A,,Overcast,0,2013-05-09 10:55:00
7:55 AM,55.8,52.3,88,30.01,5.0,SSW,3.5,-,N/A,,Scattered Clouds,200,2013-05-09 11:55:00
8:15 AM,55.8,52.0,87,30.02,5.0,SSE,3.5,-,N/A,,Mostly Cloudy,160,2013-05-09 12:15:00
8:55 AM,57.9,53.1,84,30.01,10.0,SW,5.8,-,N/A,,Scattered Clouds,220,2013-05-09 12:55:00
9:15 AM,60.6,53.8,78,30.02,10.0,SW,6.9,-,N/A,,Clear,220,2013-05-09 13:15:00
9:35 AM,63.1,55.2,75,30.02,10.0,SSW,6.9,-,N/A,,Clear,200,2013-05-09 13:35:00
10:15 AM,67.5,56.5,68,30.02,10.0,SSW,4.6,-,N/A,,Clear,210,2013-05-09 14:15:00
10:35 AM,69.3,56.1,63,30.02,10.0,WSW,3.5,-,N/A,,Clear,240,2013-05-09 14:35:00
10:55 AM,70.5,55.9,60,30.02,10.0,Calm,Calm,-,N/A,,Clear,0,2013-05-09 14:55:00
11:35 AM,73.4,56.1,55,30.02,10.0,SW,6.9,-,N/A,,Clear,220,2013-05-09 15:35:00
11:55 AM,74.3,56.3,53,30.02,10.0,WSW,8.1,-,N/A,,Clear,240,2013-05-09 15:55:00
12:15 PM,74.8,55.8,51,30.02,10.0,SW,3.5,-,N/A,,Clear,230,2013-05-09 16:15:00
12:35 PM,75.6,55.4,49,30.02,10.0,West,4.6,-,N/A,,Clear,260,2013-05-09 16:35:00
1:15 PM,76.8,54.5,46,30.01,10.0,SW,6.9,-,N/A,,Clear,230,2013-05-09 17:15:00
1:55 PM,78.3,54.3,43,30.01,10.0,West,4.6,-,N/A,,Scattered Clouds,270,2013-05-09 17:55:00
2:15 PM,77.9,53.2,42,30.00,10.0,West,6.9,-,N/A,,Scattered Clouds,260,2013-05-09 18:15:00
2:35 PM,79.2,52.2,39,30.00,10.0,WSW,12.7,-,N/A,,Mostly Cloudy,240,2013-05-09 18:35:00
2:55 PM,79.5,50.9,37,29.99,10.0,WSW,12.7,17.3,N/A,,Mostly Cloudy,250,2013-05-09 18:55:00
3:15 PM,80.6,50.7,35,29.99,10.0,SW,9.2,16.1,N/A,,Mostly Cloudy,220,2013-05-09 19:15:00
3:35 PM,81.9,48.9,32,29.98,10.0,WSW,9.2,-,N/A,,Scattered Clouds,240,2013-05-09 19:35:00
4:15 PM,81.0,44.4,27,29.97,10.0,SW,10.4,18.4,N/A,,Mostly Cloudy,230,2013-05-09 20:15:00
4:35 PM,81.1,44.8,28,29.96,10.0,WSW,9.2,-,N/A,,Mostly Cloudy,250,2013-05-09 20:35:00
4:55 PM,81.1,46.2,29,29.96,10.0,SW,6.9,-,N/A,,Scattered Clouds,230,2013-05-09 20:55:00
5:15 PM,81.0,47.3,31,29.95,10.0,WSW,11.5,-,N/A,,Mostly Cloudy,250,2013-05-09 21:15:00
5:35 PM,80.1,47.3,32,29.95,10.0,WSW,9.2,-,N/A,,Scattered Clouds,250,2013-05-09 21:35:00
5:55 PM,78.6,47.7,34,29.95,10.0,WSW,6.9,-,N/A,,Clear,250,2013-05-09 21:55:00
6:15 PM,77.9,48.0,35,29.95,10.0,West,6.9,-,N/A,,Clear,260,2013-05-09 22:15:00
6:35 PM,77.7,49.1,36,29.96,10.0,WSW,6.9,-,N/A,,Clear,250,2013-05-09 22:35:00
6:55 PM,76.8,50.5,40,29.96,10.0,WSW,5.8,-,N/A,,Clear,240,2013-05-09 22:55:00
7:15 PM,76.1,51.6,42,29.96,10.0,SW,5.8,-,N/A,,Clear,230,2013-05-09 23:15:00
7:35 PM,75.7,52.3,44,29.96,10.0,SW,3.5,-,N/A,,Clear,230,2013-05-09 23:35:00
7:55 PM,74.8,53.4,47,29.96,10.0,SSW,6.9,-,N/A,,Clear,210,2013-05-09 23:55:00
8:15 PM,73.4,53.2,49,29.96,10.0,SSW,5.8,-,N/A,,Clear,210,2013-05-10 00:15:00
8:35 PM,73.0,52.7,49,29.96,10.0,South,4.6,-,N/A,,Clear,190,2013-05-10 00:35:00
8:55 PM,71.6,53.1,52,29.96,10.0,South,4.6,-,N/A,,Clear,190,2013-05-10 00:55:00
9:15 PM,70.9,52.3,52,29.96,10.0,South,5.8,-,N/A,,Clear,190,2013-05-10 01:15:00
9:35 PM,69.3,52.9,56,29.97,10.0,South,5.8,-,N/A,,Scattered Clouds,180,2013-05-10 01:35:00
9:55 PM,68.2,53.8,60,29.97,10.0,South,4.6,-,N/A,,Scattered Clouds,170,2013-05-10 01:55:00
10:15 PM,66.7,54.5,65,29.97,10.0,South,5.8,-,N/A,,Scattered Clouds,180,2013-05-10 02:15:00
10:35 PM,66.4,54.3,65,29.98,10.0,South,4.6,-,N/A,,Clear,170,2013-05-10 02:35:00
10:55 PM,66.6,54.5,65,29.98,10.0,South,4.6,-,N/A,,Scattered Clouds,180,2013-05-10 02:55:00
11:15 PM,66.7,54.7,65,29.97,10.0,South,4.6,-,N/A,,Mostly Cloudy,180,2013-05-10 03:15:00
11:55 PM,67.5,55.4,65,29.98,10.0,SSW,8.1,-,N/A,,Overcast,200,2013-05-10 03:55:00